Ayyildiz — 3EZH9 — position and weather

sailwx.info

Track history (hours):
 
Tides and Currents Weather Stations Pressure Air Temp Water Temp Dewpoint Dewpoint Depression Visibility Wind Speed Wind Dir Waves Ship Positions

Ayyildiz

Last reported at 2017-Oct-14 17:04 UTC. Time now 2017-Oct-22 08:18 UTC.
Position N 36°43' E 014°05'.

Length 143 m; draft 8.2 m.

Type: Cargo ship. MMSI: 373574000.

Date/timePositionNaut miles runAvg speedWind from/ knotsBaromVisibWave heightAir tempDewpointWater temp
2017-Oct-14 17:04N 36°43' E 014°05'1 9.5
2017-Oct-14 17:00N 36°43' E 014°06'5 9.5
2017-Oct-14 16:30N 36°42' E 014°12'5 9.4
2017-Oct-14 16:00N 36°41' E 014°18'5 9.9
2017-Oct-14 15:30N 36°40' E 014°24'  
2017-Oct-05 17:55N 44°27' E 037°43'511.1
2017-Oct-05 17:30N 44°30' E 037°48'510.5
2017-Oct-05 17:00N 44°33' E 037°54'3 2.0
2017-Oct-05 15:30N 44°35' E 037°57'0 0.0
2017-Oct-05 15:00N 44°35' E 037°57'0 0.0
2017-Oct-05 14:30N 44°35' E 037°57'0 0.1
2017-Oct-05 14:00N 44°35' E 037°57'0 0.0
2017-Oct-05 13:30N 44°35' E 037°57'0 0.0
2017-Oct-05 13:00N 44°35' E 037°57'0 0.0
2017-Oct-05 12:30N 44°35' E 037°57'0 0.0
2017-Oct-05 12:00N 44°35' E 037°57'0 0.0
2017-Oct-05 11:30N 44°35' E 037°57'0 0.0
2017-Oct-05 11:00N 44°35' E 037°57'0 0.0
2017-Oct-05 10:30N 44°35' E 037°57'0 0.0
2017-Oct-05 10:00N 44°35' E 037°57'0 0.0
2017-Oct-05 09:27N 44°35' E 037°57'0 0.0
2017-Oct-05 09:00N 44°35' E 037°57'0 0.0
2017-Oct-05 08:30N 44°35' E 037°57'0 0.0
2017-Oct-05 08:00N 44°35' E 037°57'0 0.0
2017-Oct-05 07:30N 44°35' E 037°57'0 0.1
2017-Oct-05 07:00N 44°35' E 037°57'0 0.0
2017-Oct-05 06:30N 44°35' E 037°57'0 0.1
2017-Oct-05 06:00N 44°35' E 037°57'0 0.0
2017-Oct-05 05:30N 44°35' E 037°57'0 0.0
2017-Oct-05 04:33N 44°34' E 037°57'0 0.1
2017-Oct-05 04:30N 44°34' E 037°57'0 0.2
2017-Oct-05 03:48N 44°34' E 037°57'0 0.0
2017-Oct-05 03:30N 44°34' E 037°57'0 0.0
2017-Oct-05 02:45N 44°34' E 037°57'0 0.0
2017-Oct-05 02:21N 44°34' E 037°57'0 0.0
2017-Oct-05 01:33N 44°34' E 037°57'0 0.0
2017-Oct-05 01:24N 44°34' E 037°57'0 0.0
2017-Oct-04 21:56N 44°34' E 037°57'0 0.0
2017-Oct-04 19:47N 44°34' E 037°57'0 0.0
2017-Oct-04 19:29N 44°34' E 037°57'0 0.0
2017-Oct-04 18:20N 44°34' E 037°57'  
Track history (hours):
 
Tides and Currents Weather Stations Pressure Air Temp Water Temp Dewpoint Dewpoint Depression Visibility Wind Speed Wind Dir Waves Ship Positions

Ayyildiz

Last reported at 2017-Oct-14 17:04 UTC. Time now 2017-Oct-22 08:18 UTC.
Position N 36°43' E 014°05'.

Length 143 m; draft 8.2 m.

Type: Cargo ship. MMSI: 373574000.

Date/timePositionNaut miles runAvg speedWind from/ knotsBaromVisibWave heightAir tempDewpointWater temp
2017-Oct-14 17:04N 36°43' E 014°05'1 9.5
2017-Oct-14 17:00N 36°43' E 014°06'5 9.5
2017-Oct-14 16:30N 36°42' E 014°12'5 9.4
2017-Oct-14 16:00N 36°41' E 014°18'5 9.9
2017-Oct-14 15:30N 36°40' E 014°24'  
2017-Oct-05 17:55N 44°27' E 037°43'511.1
2017-Oct-05 17:30N 44°30' E 037°48'510.5
2017-Oct-05 17:00N 44°33' E 037°54'3 2.0
2017-Oct-05 15:30N 44°35' E 037°57'0 0.0
2017-Oct-05 15:00N 44°35' E 037°57'0 0.0
2017-Oct-05 14:30N 44°35' E 037°57'0 0.1
2017-Oct-05 14:00N 44°35' E 037°57'0 0.0
2017-Oct-05 13:30N 44°35' E 037°57'0 0.0
2017-Oct-05 13:00N 44°35' E 037°57'0 0.0
2017-Oct-05 12:30N 44°35' E 037°57'0 0.0
2017-Oct-05 12:00N 44°35' E 037°57'0 0.0
2017-Oct-05 11:30N 44°35' E 037°57'0 0.0
2017-Oct-05 11:00N 44°35' E 037°57'0 0.0
2017-Oct-05 10:30N 44°35' E 037°57'0 0.0
2017-Oct-05 10:00N 44°35' E 037°57'0 0.0
2017-Oct-05 09:27N 44°35' E 037°57'0 0.0
2017-Oct-05 09:00N 44°35' E 037°57'0 0.0
2017-Oct-05 08:30N 44°35' E 037°57'0 0.0
2017-Oct-05 08:00N 44°35' E 037°57'0 0.0
2017-Oct-05 07:30N 44°35' E 037°57'0 0.1
2017-Oct-05 07:00N 44°35' E 037°57'0 0.0
2017-Oct-05 06:30N 44°35' E 037°57'0 0.1
2017-Oct-05 06:00N 44°35' E 037°57'0 0.0
2017-Oct-05 05:30N 44°35' E 037°57'0 0.0
2017-Oct-05 04:33N 44°34' E 037°57'0 0.1
2017-Oct-05 04:30N 44°34' E 037°57'0 0.2
2017-Oct-05 03:48N 44°34' E 037°57'0 0.0
2017-Oct-05 03:30N 44°34' E 037°57'0 0.0
2017-Oct-05 02:45N 44°34' E 037°57'0 0.0
2017-Oct-05 02:21N 44°34' E 037°57'0 0.0
2017-Oct-05 01:33N 44°34' E 037°57'0 0.0
2017-Oct-05 01:24N 44°34' E 037°57'0 0.0
2017-Oct-04 21:56N 44°34' E 037°57'0 0.0
2017-Oct-04 19:47N 44°34' E 037°57'0 0.0
2017-Oct-04 19:29N 44°34' E 037°57'0 0.0
2017-Oct-04 18:20N 44°34' E 037°57'  

Dump ship's entire track history